| time (UTC) | temp F | wind direction | speed knots | gust knots | rain 1hr in | rain 24hr in | rain mn in | humidity % | barometer mb |
| 20260506182707 | 60 | 256 | 6.1 | 7.0 | 0.00 | 0.19 | 0.19 | 92 | 1001.7 |
| 20260506182207 | 60 | 263 | 9.6 | 10.4 | 0.00 | 0.19 | 0.19 | 93 | 1001.7 |
| 20260506181808 | 60 | 273 | 9.6 | 16.5 | 0.00 | 0.19 | 0.19 | 93 | 1001.6 |
| 20260506181707 | 60 | 273 | 7.8 | 7.8 | 0.00 | 0.19 | 0.19 | 93 | 1001.7 |
| 20260506181207 | 60 | 256 | 6.1 | 7.0 | 0.00 | 0.19 | 0.19 | 93 | 1001.6 |
| 20260506180707 | 60 | 0 | 0.0 | 10.4 | 0.00 | 0.19 | 0.19 | 93 | 1001.6 |
| 20260506180309 | 60 | 250 | 7.0 | 10.4 | 0.00 | 0.19 | 0.19 | 93 | 1001.7 |
| 20260506180207 | 60 | 267 | 6.1 | 7.8 | 0.00 | 0.19 | 0.19 | 93 | 1001.8 |
| 20260506175707 | 60 | 267 | 0.9 | 9.6 | 0.00 | 0.19 | 0.19 | 93 | 1001.6 |
| 20260506175207 | 60 | 244 | 2.6 | 8.7 | 0.00 | 0.19 | 0.19 | 93 | 1001.7 |
| 20260506174808 | 60 | 250 | 3.5 | 12.2 | 0.00 | 0.19 | 0.19 | 93 | 1001.7 |
| 20260506174707 | 60 | 279 | 5.2 | 12.2 | 0.00 | 0.19 | 0.19 | 93 | 1001.7 |
| 20260506174207 | 60 | 261 | 3.5 | 14.8 | 0.00 | 0.19 | 0.19 | 93 | 1001.7 |
| 20260506173707 | 60 | 285 | 7.0 | 12.2 | 0.00 | 0.19 | 0.19 | 93 | 1001.8 |
| 20260506173308 | 60 | 288 | 2.6 | 11.3 | 0.00 | 0.19 | 0.19 | 93 | 1001.7 |
| 20260506173207 | 60 | 296 | 1.7 | 7.0 | 0.00 | 0.19 | 0.19 | 93 | 1001.7 |
| 20260506172707 | 60 | 269 | 5.2 | 9.6 | 0.00 | 0.19 | 0.19 | 93 | 1001.8 |
| 20260506172207 | 60 | 307 | 1.7 | 12.2 | 0.00 | 0.19 | 0.19 | 93 | 1001.8 |
| 20260506171808 | 60 | 286 | 0.9 | 12.2 | 0.00 | 0.19 | 0.19 | 93 | 1001.8 |
| 20260506171707 | 60 | 161 | 4.3 | 12.2 | 0.00 | 0.19 | 0.19 | 93 | 1001.7 |
| 20260506171207 | 60 | 281 | 2.6 | 10.4 | 0.01 | 0.19 | 0.19 | 93 | 1001.7 |
| 20260506170707 | 60 | 244 | 4.3 | 8.7 | 0.01 | 0.19 | 0.19 | 93 | 1001.9 |
| 20260506170308 | 60 | 241 | 1.7 | 9.6 | 0.01 | 0.19 | 0.19 | 93 | 1002.0 |
| 20260506170207 | 60 | 259 | 7.0 | 9.6 | 0.01 | 0.19 | 0.19 | 93 | 1002.0 |
| 20260506165707 | 60 | 256 | 0.9 | 7.8 | 0.01 | 0.19 | 0.19 | 93 | 1002.0 |
| 20260506165207 | 60 | 265 | 3.5 | 7.8 | 0.01 | 0.19 | 0.19 | 93 | 1002.0 |
| 20260506164808 | 60 | 236 | 3.5 | 8.7 | 0.03 | 0.19 | 0.19 | 93 | 1002.0 |
| 20260506164707 | 60 | 326 | 1.7 | 5.2 | 0.03 | 0.19 | 0.19 | 93 | 1001.9 |
| 20260506164207 | 60 | 262 | 8.7 | 13.0 | 0.04 | 0.19 | 0.19 | 93 | 1001.8 |
| 20260506163707 | 60 | 263 | 5.2 | 12.2 | 0.04 | 0.19 | 0.19 | 93 | 1002.0 |
| 20260506163308 | 60 | 269 | 3.5 | 7.0 | 0.07 | 0.19 | 0.19 | 93 | 1001.8 |
| 20260506163207 | 60 | 267 | 1.7 | 7.0 | 0.07 | 0.19 | 0.19 | 93 | 1001.9 |
| 20260506162706 | 60 | 260 | 2.6 | 9.6 | 0.09 | 0.19 | 0.19 | 93 | 1002.0 |
| 20260506162207 | 60 | 229 | 1.7 | 8.7 | 0.10 | 0.19 | 0.19 | 93 | 1002.1 |
| 20260506161808 | 60 | 280 | 5.2 | 6.1 | 0.10 | 0.19 | 0.19 | 94 | 1002.0 |
| 20260506161706 | 60 | 145 | 2.6 | 6.1 | 0.10 | 0.19 | 0.19 | 93 | 1001.9 |
| 20260506161206 | 60 | 262 | 1.7 | 7.0 | 0.10 | 0.18 | 0.19 | 93 | 1001.8 |
| 20260506160706 | 60 | 267 | 3.5 | 12.2 | 0.12 | 0.18 | 0.18 | 93 | 1002.0 |
| 20260506160308 | 60 | 0 | 0.0 | 8.7 | 0.13 | 0.18 | 0.18 | 93 | 1002.3 |
| 20260506160207 | 60 | 250 | 7.0 | 8.7 | 0.13 | 0.18 | 0.18 | 93 | 1002.3 |
| 20260506155706 | 60 | 0 | 0.0 | 8.7 | 0.13 | 0.17 | 0.17 | 93 | 1002.6 |
| 20260506155207 | 60 | 273 | 2.6 | 7.8 | 0.13 | 0.17 | 0.17 | 93 | 1002.9 |
| 20260506154808 | 60 | 254 | 3.5 | 6.1 | 0.13 | 0.16 | 0.17 | 92 | 1002.9 |
| 20260506154706 | 60 | 271 | 1.7 | 6.1 | 0.13 | 0.16 | 0.17 | 92 | 1002.9 |
| 20260506154206 | 60 | 0 | 0.0 | 3.5 | 0.13 | 0.15 | 0.16 | 92 | 1003.1 |
| 20260506153706 | 60 | 252 | 1.7 | 4.3 | 0.12 | 0.14 | 0.14 | 91 | 1003.1 |
| 20260506153308 | 60 | 257 | 3.5 | 8.7 | 0.10 | 0.12 | 0.13 | 91 | 1003.1 |
| 20260506153206 | 60 | 223 | 1.7 | 8.7 | 0.10 | 0.12 | 0.13 | 91 | 1003.1 |
| 20260506152706 | 60 | 265 | 0.9 | 5.2 | 0.08 | 0.10 | 0.11 | 91 | 1003.1 |
| 20260506152206 | 60 | 275 | 5.2 | 5.2 | 0.08 | 0.09 | 0.10 | 90 | 1003.0 |
| 20260506151808 | 60 | 230 | 3.5 | 7.8 | 0.08 | 0.09 | 0.09 | 90 | 1003.1 |
| 20260506151706 | 60 | 254 | 4.3 | 7.8 | 0.08 | 0.09 | 0.09 | 90 | 1003.0 |
| 20260506151206 | 60 | 263 | 2.6 | 6.1 | 0.08 | 0.08 | 0.08 | 90 | 1002.9 |
| 20260506150706 | 60 | 252 | 0.9 | 6.1 | 0.06 | 0.06 | 0.07 | 89 | 1003.0 |
| 20260506150308 | 60 | 257 | 2.6 | 6.1 | 0.05 | 0.05 | 0.06 | 89 | 1002.8 |
| 20260506150206 | 60 | 258 | 2.6 | 6.1 | 0.05 | 0.05 | 0.06 | 89 | 1002.8 |
| 20260506145706 | 61 | 300 | 3.5 | 3.5 | 0.04 | 0.04 | 0.04 | 89 | 1002.8 |
| 20260506145206 | 61 | 246 | 7.8 | 10.4 | 0.04 | 0.04 | 0.04 | 88 | 1002.9 |
| 20260506144807 | 61 | 228 | 1.7 | 7.0 | 0.03 | 0.03 | 0.03 | 88 | 1002.9 |
| 20260506144706 | 61 | 257 | 2.6 | 7.0 | 0.03 | 0.03 | 0.03 | 88 | 1002.9 |
| 20260506144206 | 61 | 238 | 3.5 | 6.1 | 0.02 | 0.02 | 0.03 | 88 | 1003.1 |
| 20260506143706 | 61 | 260 | 5.2 | 8.7 | 0.02 | 0.02 | 0.02 | 87 | 1003.0 |
| 20260506143307 | 61 | 254 | 2.6 | 7.8 | 0.02 | 0.02 | 0.02 | 87 | 1003.0 |
| 20260506143206 | 61 | 257 | 3.5 | 7.8 | 0.02 | 0.02 | 0.02 | 86 | 1003.0 |
| 20260506142706 | 61 | 263 | 1.7 | 11.3 | 0.02 | 0.02 | 0.02 | 85 | 1002.8 |
| 20260506142206 | 62 | 265 | 1.7 | 11.3 | 0.01 | 0.01 | 0.01 | 85 | 1002.9 |
| 20260506141807 | 62 | 228 | 4.3 | 8.7 | 0.01 | 0.01 | 0.01 | 84 | 1002.9 |
| 20260506141706 | 62 | 256 | 3.5 | 6.1 | 0.01 | 0.01 | 0.01 | 84 | 1003.0 |
| 20260506141206 | 62 | 272 | 1.7 | 7.0 | 0.00 | 0.00 | 0.00 | 83 | 1003.2 |
| 20260506140706 | 63 | 294 | 1.7 | 6.1 | 0.00 | 0.00 | 0.00 | 82 | 1003.1 |
| 20260506140307 | 63 | 299 | 1.7 | 13.9 | 0.00 | 0.00 | 0.00 | 81 | 1003.0 |
| 20260506140206 | 63 | 243 | 7.8 | 13.9 | 0.00 | 0.00 | 0.00 | 81 | 1003.0 |
| 20260506135706 | 63 | 244 | 3.5 | 8.7 | 0.00 | 0.00 | 0.00 | 80 | 1003.0 |
| 20260506135206 | 63 | 254 | 3.5 | 7.8 | 0.00 | 0.00 | 0.00 | 80 | 1002.9 |
| 20260506134808 | 63 | 263 | 3.5 | 8.7 | 0.00 | 0.00 | 0.00 | 80 | 1002.9 |
| 20260506134706 | 63 | 256 | 8.7 | 8.7 | 0.00 | 0.00 | 0.00 | 80 | 1002.9 |
| 20260506134206 | 63 | 250 | 3.5 | 11.3 | 0.00 | 0.00 | 0.00 | 80 | 1002.8 |
| 20260506133706 | 63 | 263 | 2.6 | 10.4 | 0.00 | 0.00 | 0.00 | 79 | 1002.8 |
| 20260506133308 | 64 | 194 | 0.9 | 10.4 | 0.00 | 0.00 | 0.00 | 79 | 1002.8 |
| 20260506133206 | 64 | 295 | 2.6 | 10.4 | 0.00 | 0.00 | 0.00 | 79 | 1002.7 |
| 20260506132706 | 64 | 278 | 7.8 | 9.6 | 0.00 | 0.00 | 0.00 | 78 | 1002.9 |
| 20260506132206 | 64 | 271 | 1.7 | 7.8 | 0.00 | 0.00 | 0.00 | 78 | 1003.0 |
| 20260506131706 | 64 | 238 | 5.2 | 9.6 | 0.00 | 0.00 | 0.00 | 77 | 1002.9 |
| 20260506131206 | 64 | 251 | 3.5 | 13.0 | 0.00 | 0.00 | 0.00 | 77 | 1002.9 |
| 20260506130706 | 64 | 264 | 2.6 | 10.4 | 0.00 | 0.00 | 0.00 | 77 | 1002.9 |
| 20260506130307 | 64 | 261 | 6.1 | 13.0 | 0.00 | 0.00 | 0.00 | 77 | 1002.9 |
| 20260506130206 | 64 | 265 | 6.1 | 13.0 | 0.00 | 0.00 | 0.00 | 77 | 1002.9 |
| 20260506125706 | 64 | 284 | 5.2 | 12.2 | 0.00 | 0.00 | 0.00 | 77 | 1003.0 |
| 20260506125206 | 64 | 257 | 2.6 | 7.8 | 0.00 | 0.00 | 0.00 | 77 | 1003.1 |
| 20260506124706 | 64 | 269 | 2.6 | 12.2 | 0.00 | 0.00 | 0.00 | 77 | 1003.2 |
| 20260506124206 | 64 | 271 | 2.6 | 9.6 | 0.00 | 0.00 | 0.00 | 76 | 1003.2 |
| 20260506123706 | 64 | 266 | 2.6 | 11.3 | 0.00 | 0.00 | 0.00 | 76 | 1003.3 |
| 20260506123308 | 65 | 234 | 4.3 | 8.7 | 0.00 | 0.00 | 0.00 | 77 | 1003.0 |
| 20260506123206 | 65 | 197 | 1.7 | 7.8 | 0.00 | 0.00 | 0.00 | 77 | 1002.9 |
| 20260506122706 | 64 | 259 | 5.2 | 7.0 | 0.00 | 0.00 | 0.00 | 77 | 1002.9 |
| 20260506122206 | 64 | 243 | 3.5 | 9.6 | 0.00 | 0.00 | 0.00 | 77 | 1003.0 |
| 20260506121808 | 64 | 267 | 7.0 | 8.7 | 0.00 | 0.00 | 0.00 | 77 | 1003.1 |
| 20260506121706 | 64 | 293 | 6.1 | 8.7 | 0.00 | 0.00 | 0.00 | 77 | 1003.1 |
| 20260506121206 | 64 | 281 | 0.9 | 10.4 | 0.00 | 0.00 | 0.00 | 77 | 1002.9 |
| 20260506120706 | 64 | 270 | 1.7 | 9.6 | 0.00 | 0.00 | 0.00 | 77 | 1002.9 |
| 20260506120307 | 64 | 297 | 3.5 | 11.3 | 0.00 | 0.00 | 0.00 | 77 | 1002.9 |
| 20260506120206 | 64 | 196 | 0.9 | 11.3 | 0.00 | 0.00 | 0.00 | 77 | 1002.9 |
| 20260506115706 | 64 | 273 | 3.5 | 8.7 | 0.00 | 0.00 | 0.00 | 77 | 1002.7 |
| 20260506115206 | 64 | 281 | 3.5 | 7.0 | 0.00 | 0.00 | 0.00 | 77 | 1002.7 |
| 20260506114808 | 64 | 252 | 3.5 | 6.1 | 0.00 | 0.00 | 0.00 | 77 | 1002.7 |
| 20260506114706 | 64 | 0 | 0.0 | 6.1 | 0.00 | 0.00 | 0.00 | 77 | 1002.7 |
| 20260506114206 | 64 | 226 | 7.0 | 10.4 | 0.00 | 0.00 | 0.00 | 77 | 1002.8 |
| 20260506113706 | 64 | 265 | 3.5 | 7.0 | 0.00 | 0.00 | 0.00 | 77 | 1002.7 |
| 20260506113307 | 64 | 318 | 2.6 | 8.7 | 0.00 | 0.00 | 0.00 | 77 | 1002.6 |
| 20260506113206 | 64 | 245 | 4.3 | 8.7 | 0.00 | 0.00 | 0.00 | 77 | 1002.6 |
| 20260506112706 | 64 | 270 | 5.2 | 6.1 | 0.00 | 0.00 | 0.00 | 77 | 1002.6 |
| 20260506112206 | 64 | 254 | 6.1 | 13.0 | 0.00 | 0.00 | 0.00 | 77 | 1002.6 |
| 20260506111807 | 64 | 236 | 14.8 | 14.8 | 0.00 | 0.00 | 0.00 | 77 | 1002.6 |
| 20260506111706 | 64 | 288 | 2.6 | 13.0 | 0.00 | 0.00 | 0.00 | 77 | 1002.6 |
| 20260506111206 | 63 | 245 | 7.0 | 8.7 | 0.00 | 0.00 | 0.00 | 77 | 1002.6 |
| 20260506110706 | 63 | 250 | 4.3 | 13.0 | 0.00 | 0.00 | 0.00 | 77 | 1002.6 |
| 20260506110307 | 63 | 286 | 8.7 | 14.8 | 0.00 | 0.00 | 0.00 | 77 | 1002.6 |
| 20260506110206 | 63 | 240 | 4.3 | 14.8 | 0.00 | 0.00 | 0.00 | 77 | 1002.6 |
| 20260506105706 | 63 | 263 | 2.6 | 9.6 | 0.00 | 0.00 | 0.00 | 77 | 1002.6 |
| 20260506105206 | 63 | 266 | 7.0 | 8.7 | 0.00 | 0.00 | 0.00 | 77 | 1002.6 |
| 20260506104807 | 64 | 328 | 0.9 | 12.2 | 0.00 | 0.00 | 0.00 | 77 | 1002.4 |
| 20260506104706 | 63 | 134 | 0.9 | 7.8 | 0.00 | 0.00 | 0.00 | 77 | 1002.6 |
| 20260506104206 | 64 | 260 | 5.2 | 11.3 | 0.00 | 0.00 | 0.00 | 77 | 1002.6 |
| 20260506103706 | 63 | 277 | 3.5 | 7.0 | 0.00 | 0.00 | 0.00 | 77 | 1002.6 |
| 20260506103309 | 64 | 257 | 7.8 | 10.4 | 0.00 | 0.00 | 0.00 | 77 | 1002.5 |
| 20260506103206 | 64 | 262 | 2.6 | 10.4 | 0.00 | 0.00 | 0.00 | 77 | 1002.5 |
| 20260506102706 | 64 | 257 | 4.3 | 12.2 | 0.00 | 0.00 | 0.00 | 77 | 1002.5 |
| 20260506102206 | 64 | 274 | 3.5 | 13.9 | 0.00 | 0.00 | 0.00 | 77 | 1002.5 |
| 20260506101807 | 64 | 265 | 2.6 | 9.6 | 0.00 | 0.00 | 0.00 | 77 | 1002.5 |
| 20260506101706 | 64 | 261 | 2.6 | 9.6 | 0.00 | 0.00 | 0.00 | 77 | 1002.6 |
| 20260506101206 | 64 | 244 | 2.6 | 7.8 | 0.00 | 0.00 | 0.00 | 76 | 1002.4 |
| 20260506100706 | 64 | 255 | 7.0 | 8.7 | 0.00 | 0.00 | 0.00 | 76 | 1002.4 |
| 20260506100307 | 64 | 262 | 7.0 | 7.0 | 0.00 | 0.00 | 0.00 | 76 | 1002.5 |
| 20260506100206 | 64 | 252 | 3.5 | 6.1 | 0.00 | 0.00 | 0.00 | 76 | 1002.5 |
| 20260506095706 | 64 | 236 | 8.7 | 10.4 | 0.00 | 0.00 | 0.00 | 75 | 1002.5 |
| 20260506095206 | 64 | 256 | 7.8 | 9.6 | 0.00 | 0.00 | 0.00 | 75 | 1002.4 |
| 20260506094807 | 65 | 273 | 8.7 | 11.3 | 0.00 | 0.00 | 0.00 | 75 | 1002.5 |
| 20260506094706 | 64 | 269 | 0.9 | 11.3 | 0.00 | 0.00 | 0.00 | 75 | 1002.5 |
| 20260506094206 | 65 | 0 | 0.0 | 7.0 | 0.00 | 0.00 | 0.00 | 75 | 1002.5 |
| 20260506093706 | 65 | 245 | 7.0 | 10.4 | 0.00 | 0.00 | 0.00 | 74 | 1002.7 |
| 20260506093307 | 65 | 272 | 3.5 | 7.8 | 0.00 | 0.00 | 0.00 | 75 | 1002.5 |
| 20260506093206 | 65 | 312 | 2.6 | 7.8 | 0.00 | 0.00 | 0.00 | 75 | 1002.6 |
| 20260506092706 | 65 | 261 | 8.7 | 8.7 | 0.00 | 0.00 | 0.00 | 74 | 1002.6 |
| 20260506092206 | 65 | 273 | 7.8 | 17.4 | 0.00 | 0.00 | 0.00 | 74 | 1002.7 |
| 20260506091808 | 65 | 108 | 3.5 | 8.7 | 0.00 | 0.00 | 0.00 | 74 | 1002.7 |
| 20260506091706 | 65 | 267 | 5.2 | 8.7 | 0.00 | 0.00 | 0.00 | 74 | 1002.5 |
| 20260506091206 | 65 | 247 | 7.8 | 11.3 | 0.00 | 0.00 | 0.00 | 74 | 1002.6 |
| 20260506090706 | 65 | 261 | 3.5 | 11.3 | 0.00 | 0.00 | 0.00 | 75 | 1002.6 |
| 20260506090307 | 65 | 260 | 5.2 | 13.9 | 0.00 | 0.00 | 0.00 | 75 | 1002.6 |
| 20260506090206 | 65 | 240 | 9.6 | 13.9 | 0.00 | 0.00 | 0.00 | 75 | 1002.6 |
| 20260506085706 | 65 | 266 | 2.6 | 8.7 | 0.00 | 0.00 | 0.00 | 75 | 1002.7 |
| 20260506085206 | 65 | 253 | 4.3 | 7.8 | 0.00 | 0.00 | 0.00 | 75 | 1002.8 |
| 20260506084807 | 65 | 273 | 8.7 | 8.7 | 0.00 | 0.00 | 0.00 | 75 | 1002.7 |
| 20260506084706 | 65 | 264 | 0.9 | 8.7 | 0.00 | 0.00 | 0.00 | 75 | 1002.7 |
| 20260506084206 | 65 | 254 | 4.3 | 8.7 | 0.00 | 0.00 | 0.00 | 75 | 1002.7 |
| 20260506083706 | 65 | 252 | 3.5 | 6.1 | 0.00 | 0.00 | 0.00 | 75 | 1002.7 |
| 20260506083307 | 65 | 0 | 0.0 | 8.7 | 0.00 | 0.00 | 0.00 | 75 | 1002.7 |
| 20260506083206 | 65 | 226 | 7.0 | 8.7 | 0.00 | 0.00 | 0.00 | 75 | 1002.7 |
| 20260506082706 | 65 | 238 | 1.7 | 5.2 | 0.00 | 0.00 | 0.00 | 75 | 1002.7 |
| 20260506082206 | 65 | 0 | 0.0 | 10.4 | 0.00 | 0.00 | 0.00 | 75 | 1002.8 |
| 20260506081807 | 65 | 156 | 0.9 | 8.7 | 0.00 | 0.00 | 0.00 | 75 | 1002.8 |
| 20260506081706 | 65 | 244 | 1.7 | 8.7 | 0.00 | 0.00 | 0.00 | 75 | 1002.8 |
| 20260506081206 | 65 | 280 | 3.5 | 8.7 | 0.00 | 0.00 | 0.00 | 75 | 1002.8 |
| 20260506080706 | 65 | 215 | 7.0 | 8.7 | 0.00 | 0.00 | 0.00 | 75 | 1002.9 |
| 20260506080308 | 65 | 282 | 1.7 | 7.0 | 0.00 | 0.00 | 0.00 | 75 | 1002.9 |
| 20260506080206 | 65 | 246 | 3.5 | 6.1 | 0.00 | 0.00 | 0.00 | 75 | 1002.9 |
| 20260506073308 | 65 | 247 | 4.3 | 8.7 | 0.00 | 0.00 | 0.00 | 74 | 1003.0 |
| 20260506073207 | 65 | 229 | 1.7 | 7.0 | 0.00 | 0.00 | 0.00 | 74 | 1003.0 |
| 20260506072707 | 65 | 225 | 2.6 | 6.1 | 0.00 | 0.00 | 0.00 | 74 | 1003.0 |
| 20260506072207 | 65 | 251 | 2.6 | 7.0 | 0.00 | 0.00 | 0.00 | 73 | 1003.1 |
| 20260506071808 | 65 | 249 | 3.5 | 9.6 | 0.00 | 0.00 | 0.00 | 73 | 1003.0 |
| 20260506071707 | 65 | 254 | 1.7 | 3.5 | 0.00 | 0.00 | 0.00 | 73 | 1003.0 |
| 20260506071207 | 65 | 249 | 7.0 | 7.8 | 0.00 | 0.00 | 0.00 | 73 | 1003.0 |
| 20260506070707 | 66 | 269 | 1.7 | 10.4 | 0.00 | 0.00 | 0.00 | 73 | 1003.1 |
| 20260506070308 | 66 | 252 | 3.5 | 7.0 | 0.00 | 0.00 | 0.00 | 72 | 1003.1 |
| 20260506070207 | 66 | 270 | 3.5 | 7.0 | 0.00 | 0.00 | 0.00 | 72 | 1003.1 |
| 20260506062207 | 66 | 247 | 4.3 | 8.7 | 0.00 | 0.00 | 0.00 | 70 | 1003.5 |
| 20260506061808 | 66 | 0 | 0.0 | 7.8 | 0.00 | 0.00 | 0.00 | 70 | 1003.5 |
| 20260506061707 | 66 | 263 | 2.6 | 6.1 | 0.00 | 0.00 | 0.00 | 69 | 1003.5 |
| 20260506061207 | 66 | 264 | 1.7 | 8.7 | 0.00 | 0.00 | 0.00 | 69 | 1003.5 |
| 20260506060707 | 66 | 291 | 4.3 | 10.4 | 0.00 | 0.00 | 0.00 | 69 | 1003.4 |
| 20260506060308 | 66 | 264 | 3.5 | 10.4 | 0.00 | 0.00 | 0.00 | 69 | 1003.5 |
| 20260506060207 | 66 | 246 | 8.7 | 8.7 | 0.00 | 0.00 | 0.00 | 68 | 1003.5 |
| 20260506051207 | 66 | 251 | 1.7 | 4.3 | 0.00 | 0.00 | 0.00 | 66 | 1003.7 |
| 20260506050706 | 66 | 250 | 0.9 | 7.0 | 0.00 | 0.00 | 0.00 | 66 | 1003.9 |
| 20260506050309 | 66 | 269 | 2.6 | 6.1 | 0.00 | 0.00 | 0.00 | 65 | 1003.8 |
| 20260506050206 | 66 | 263 | 0.9 | 6.1 | 0.00 | 0.00 | 0.00 | 65 | 1003.8 |
| 20260506044808 | 66 | 263 | 0.9 | 5.2 | 0.00 | 0.00 | 0.00 | 65 | 1003.8 |
| 20260506044707 | 66 | 0 | 0.0 | 5.2 | 0.00 | 0.00 | 0.00 | 65 | 1003.9 |
| 20260506044207 | 66 | 240 | 3.5 | 8.7 | 0.00 | 0.00 | 0.00 | 64 | 1003.8 |
| 20260506043707 | 67 | 283 | 5.2 | 7.0 | 0.00 | 0.00 | 0.00 | 64 | 1003.8 |
| 20260506043308 | 67 | 0 | 0.0 | 5.2 | 0.00 | 0.00 | 0.00 | 64 | 1003.8 |
| 20260506043206 | 67 | 264 | 0.9 | 5.2 | 0.00 | 0.00 | 0.00 | 63 | 1003.8 |
| 20260506042706 | 67 | 0 | 0.0 | 3.5 | 0.00 | 0.00 | 0.00 | 63 | 1003.9 |
| 20260506042206 | 67 | 254 | 0.9 | 7.0 | 0.00 | 0.00 | 0.00 | 63 | 1003.8 |
| 20260506041808 | 67 | 265 | 2.6 | 6.1 | 0.00 | 0.00 | 0.00 | 62 | 1003.8 |
| 20260506041706 | 67 | 239 | 5.2 | 5.2 | 0.00 | 0.00 | 0.00 | 62 | 1003.9 |
| 20260506041206 | 67 | 281 | 0.9 | 4.3 | 0.00 | 0.00 | 0.00 | 62 | 1003.9 |
| 20260506040706 | 68 | 286 | 3.5 | 6.1 | 0.00 | 0.00 | 0.00 | 62 | 1003.8 |
| 20260506040308 | 68 | 267 | 3.5 | 5.2 | 0.00 | 0.00 | 0.00 | 61 | 1003.8 |
| 20260506040206 | 68 | 259 | 1.7 | 5.2 | 0.00 | 0.00 | 0.00 | 61 | 1003.8 |
| 20260506035706 | 68 | 290 | 2.6 | 7.0 | 0.00 | 0.00 | 0.00 | 61 | 1003.7 |
| 20260506035206 | 68 | 268 | 7.0 | 7.0 | 0.00 | 0.00 | 0.00 | 61 | 1003.8 |
| 20260506034808 | 68 | 259 | 1.7 | 8.7 | 0.00 | 0.00 | 0.00 | 60 | 1003.8 |
| 20260506034706 | 68 | 0 | 0.0 | 7.8 | 0.00 | 0.00 | 0.00 | 60 | 1003.8 |
| 20260506034206 | 68 | 0 | 0.0 | 5.2 | 0.00 | 0.00 | 0.00 | 60 | 1003.8 |
| 20260506033706 | 68 | 279 | 5.2 | 6.1 | 0.00 | 0.00 | 0.00 | 60 | 1003.8 |
| 20260506033308 | 68 | 207 | 4.3 | 7.8 | 0.00 | 0.00 | 0.00 | 60 | 1003.7 |
| 20260506033206 | 68 | 259 | 6.1 | 7.8 | 0.00 | 0.00 | 0.00 | 60 | 1003.7 |
| 20260506032706 | 68 | 0 | 0.0 | 5.2 | 0.00 | 0.00 | 0.00 | 60 | 1003.6 |
| 20260506032206 | 69 | 257 | 3.5 | 7.0 | 0.00 | 0.00 | 0.00 | 60 | 1003.7 |
| 20260506031808 | 69 | 255 | 6.1 | 9.6 | 0.00 | 0.00 | 0.00 | 59 | 1003.7 |
| 20260506031706 | 69 | 277 | 7.0 | 9.6 | 0.00 | 0.00 | 0.00 | 59 | 1003.7 |
| 20260506031206 | 69 | 227 | 1.7 | 9.6 | 0.00 | 0.00 | 0.00 | 59 | 1003.6 |
| 20260506030706 | 69 | 277 | 1.7 | 5.2 | 0.00 | 0.00 | 0.00 | 59 | 1003.7 |
| 20260506030307 | 69 | 265 | 6.1 | 8.7 | 0.00 | 0.00 | 0.00 | 58 | 1003.7 |
| 20260506030206 | 69 | 230 | 3.5 | 8.7 | 0.00 | 0.00 | 0.00 | 58 | 1003.7 |
| 20260506025706 | 69 | 261 | 7.0 | 7.0 | 0.00 | 0.00 | 0.00 | 58 | 1003.6 |
| 20260506025206 | 69 | 254 | 0.9 | 12.2 | 0.00 | 0.00 | 0.00 | 58 | 1003.6 |
| 20260506024808 | 69 | 166 | 2.6 | 10.4 | 0.00 | 0.00 | 0.00 | 57 | 1003.7 |
| 20260506024706 | 69 | 0 | 0.0 | 10.4 | 0.00 | 0.00 | 0.00 | 57 | 1003.7 |
| 20260506024206 | 69 | 0 | 0.0 | 5.2 | 0.00 | 0.00 | 0.00 | 57 | 1003.7 |
| 20260506023706 | 70 | 350 | 1.7 | 7.8 | 0.00 | 0.00 | 0.00 | 57 | 1003.8 |
| 20260506023307 | 70 | 253 | 3.5 | 7.8 | 0.00 | 0.00 | 0.00 | 56 | 1003.8 |
| 20260506023206 | 70 | 277 | 3.5 | 7.0 | 0.00 | 0.00 | 0.00 | 56 | 1003.8 |
| 20260506022706 | 70 | 225 | 3.5 | 5.2 | 0.00 | 0.00 | 0.00 | 56 | 1003.9 |
| 20260506022206 | 70 | 290 | 1.7 | 6.1 | 0.00 | 0.00 | 0.00 | 55 | 1003.8 |
| 20260506021808 | 70 | 257 | 6.1 | 10.4 | 0.00 | 0.00 | 0.00 | 55 | 1003.8 |
| 20260506021706 | 70 | 157 | 2.6 | 10.4 | 0.00 | 0.00 | 0.00 | 55 | 1003.7 |
| 20260506021206 | 70 | 236 | 2.6 | 7.0 | 0.00 | 0.00 | 0.00 | 55 | 1003.7 |
| 20260506020706 | 70 | 236 | 6.1 | 8.7 | 0.00 | 0.00 | 0.00 | 54 | 1003.8 |
| 20260506020308 | 70 | 178 | 0.9 | 7.0 | 0.00 | 0.00 | 0.00 | 54 | 1003.7 |
| 20260506020206 | 70 | 0 | 0.0 | 7.0 | 0.00 | 0.00 | 0.00 | 54 | 1003.7 |
| 20260506015706 | 71 | 275 | 2.6 | 7.8 | 0.00 | 0.00 | 0.00 | 54 | 1003.6 |
| 20260506015206 | 71 | 192 | 0.9 | 7.8 | 0.00 | 0.00 | 0.00 | 53 | 1003.6 |
| 20260506014807 | 71 | 229 | 7.0 | 12.2 | 0.00 | 0.00 | 0.00 | 53 | 1003.5 |
| 20260506014706 | 71 | 259 | 2.6 | 5.2 | 0.00 | 0.00 | 0.00 | 53 | 1003.5 |
| 20260506014206 | 71 | 258 | 6.1 | 7.0 | 0.00 | 0.00 | 0.00 | 52 | 1003.5 |
| 20260506013706 | 71 | 290 | 0.9 | 7.8 | 0.00 | 0.00 | 0.00 | 52 | 1003.5 |
| 20260506013307 | 71 | 259 | 0.9 | 6.1 | 0.00 | 0.00 | 0.00 | 52 | 1003.5 |
| 20260506013206 | 71 | 269 | 1.7 | 6.1 | 0.00 | 0.00 | 0.00 | 52 | 1003.6 |
| 20260506012706 | 72 | 234 | 2.6 | 8.7 | 0.00 | 0.00 | 0.00 | 51 | 1003.5 |
| 20260506012206 | 72 | 289 | 1.7 | 8.7 | 0.00 | 0.00 | 0.00 | 51 | 1003.4 |
| 20260506011807 | 72 | 267 | 0.9 | 11.3 | 0.00 | 0.00 | 0.00 | 51 | 1003.4 |
| 20260506011706 | 72 | 257 | 3.5 | 11.3 | 0.00 | 0.00 | 0.00 | 50 | 1003.4 |
| 20260506011206 | 72 | 316 | 1.7 | 7.8 | 0.00 | 0.00 | 0.00 | 50 | 1003.3 |
| 20260506010706 | 72 | 281 | 3.5 | 7.0 | 0.00 | 0.00 | 0.00 | 50 | 1003.3 |
| 20260506010308 | 72 | 275 | 0.9 | 7.0 | 0.00 | 0.00 | 0.00 | 50 | 1003.3 |
| 20260506010206 | 72 | 271 | 2.6 | 7.0 | 0.00 | 0.00 | 0.00 | 49 | 1003.4 |
| 20260506005706 | 73 | 295 | 2.6 | 6.1 | 0.00 | 0.00 | 0.00 | 49 | 1003.2 |
| 20260506005206 | 73 | 272 | 2.6 | 5.2 | 0.00 | 0.00 | 0.00 | 49 | 1003.3 |
| 20260506004807 | 73 | 263 | 1.7 | 8.7 | 0.00 | 0.00 | 0.00 | 48 | 1003.2 |
| 20260506004706 | 73 | 5 | 0.9 | 8.7 | 0.00 | 0.00 | 0.00 | 48 | 1003.1 |
| 20260506004206 | 73 | 266 | 5.2 | 10.4 | 0.00 | 0.00 | 0.00 | 48 | 1003.0 |
| 20260506003706 | 73 | 221 | 4.3 | 6.1 | 0.00 | 0.00 | 0.00 | 47 | 1003.0 |
| 20260506003307 | 73 | 264 | 5.2 | 9.6 | 0.00 | 0.00 | 0.00 | 47 | 1003.0 |
| 20260506003206 | 74 | 269 | 7.0 | 9.6 | 0.00 | 0.00 | 0.00 | 47 | 1003.0 |
| 20260506002706 | 74 | 0 | 0.0 | 7.0 | 0.00 | 0.00 | 0.00 | 47 | 1003.0 |
| 20260506002206 | 74 | 260 | 0.9 | 8.7 | 0.00 | 0.00 | 0.00 | 46 | 1002.9 |
| 20260506001807 | 74 | 281 | 5.2 | 13.0 | 0.00 | 0.00 | 0.00 | 46 | 1002.9 |
| 20260506001706 | 74 | 261 | 3.5 | 13.0 | 0.00 | 0.00 | 0.00 | 46 | 1002.9 |
| 20260506001206 | 74 | 243 | 3.5 | 5.2 | 0.00 | 0.00 | 0.00 | 45 | 1002.8 |
| 20260506000706 | 75 | 227 | 4.3 | 6.1 | 0.00 | 0.00 | 0.00 | 44 | 1002.8 |
| 20260506000309 | 75 | 264 | 2.6 | 5.2 | 0.00 | 0.00 | 0.00 | 44 | 1002.7 |
| 20260506000206 | 75 | 0 | 0.0 | 4.3 | 0.00 | 0.00 | 0.00 | 44 | 1002.7 |
| 20260505235706 | 75 | 265 | 2.6 | 9.6 | 0.00 | 0.00 | 0.00 | 43 | 1002.7 |
| 20260505235206 | 75 | 269 | 0.9 | 7.8 | 0.00 | 0.00 | 0.00 | 43 | 1002.6 |
| 20260505234807 | 75 | 0 | 0.0 | 6.1 | 0.00 | 0.00 | 0.00 | 43 | 1002.5 |
| 20260505234706 | 75 | 230 | 5.2 | 5.2 | 0.00 | 0.00 | 0.00 | 43 | 1002.6 |
| 20260505234206 | 76 | 275 | 5.2 | 10.4 | 0.00 | 0.00 | 0.00 | 43 | 1002.6 |
| 20260505233706 | 76 | 252 | 6.1 | 12.2 | 0.00 | 0.00 | 0.00 | 42 | 1002.5 |
| 20260505233308 | 76 | 262 | 7.0 | 12.2 | 0.00 | 0.00 | 0.00 | 42 | 1002.5 |
| 20260505233206 | 76 | 233 | 7.0 | 7.0 | 0.00 | 0.00 | 0.00 | 42 | 1002.4 |
| 20260505232706 | 76 | 275 | 1.7 | 12.2 | 0.00 | 0.00 | 0.00 | 42 | 1002.5 |
| 20260505232206 | 76 | 261 | 7.8 | 9.6 | 0.00 | 0.00 | 0.00 | 42 | 1002.6 |
| 20260505231808 | 76 | 266 | 1.7 | 7.0 | 0.00 | 0.00 | 0.00 | 42 | 1002.5 |
| 20260505231706 | 76 | 335 | 1.7 | 7.0 | 0.00 | 0.00 | 0.00 | 42 | 1002.5 |
| 20260505231206 | 77 | 283 | 3.5 | 12.2 | 0.00 | 0.00 | 0.00 | 41 | 1002.5 |
| 20260505230706 | 77 | 252 | 4.3 | 11.3 | 0.00 | 0.00 | 0.00 | 41 | 1002.5 |
| 20260505230307 | 77 | 252 | 11.3 | 11.3 | 0.00 | 0.00 | 0.00 | 41 | 1002.6 |
| 20260505230206 | 77 | 280 | 3.5 | 9.6 | 0.00 | 0.00 | 0.00 | 41 | 1002.5 |
| 20260505225706 | 77 | 279 | 5.2 | 8.7 | 0.00 | 0.00 | 0.00 | 42 | 1002.5 |
| 20260505225206 | 77 | 255 | 9.6 | 13.0 | 0.00 | 0.00 | 0.00 | 42 | 1002.5 |
| 20260505224807 | 77 | 259 | 6.1 | 12.2 | 0.00 | 0.00 | 0.00 | 42 | 1002.4 |
| 20260505224706 | 77 | 250 | 0.9 | 12.2 | 0.00 | 0.00 | 0.00 | 42 | 1002.4 |
| 20260505224206 | 77 | 205 | 9.6 | 13.0 | 0.00 | 0.00 | 0.00 | 42 | 1002.3 |
| 20260505223706 | 77 | 276 | 7.0 | 9.6 | 0.00 | 0.00 | 0.00 | 42 | 1002.4 |
| 20260505223307 | 77 | 259 | 2.6 | 7.0 | 0.00 | 0.00 | 0.00 | 42 | 1002.4 |
| 20260505223206 | 77 | 275 | 2.6 | 7.0 | 0.00 | 0.00 | 0.00 | 42 | 1002.4 |
| 20260505222706 | 77 | 244 | 7.8 | 9.6 | 0.00 | 0.00 | 0.00 | 41 | 1002.5 |
| 20260505222206 | 77 | 261 | 5.2 | 7.8 | 0.00 | 0.00 | 0.00 | 42 | 1002.4 |
| 20260505221808 | 77 | 239 | 7.0 | 10.4 | 0.00 | 0.00 | 0.00 | 41 | 1002.5 |
| 20260505221706 | 77 | 227 | 8.7 | 10.4 | 0.00 | 0.00 | 0.00 | 41 | 1002.5 |
| 20260505221206 | 78 | 256 | 6.1 | 8.7 | 0.00 | 0.00 | 0.00 | 41 | 1002.4 |
| 20260505220706 | 78 | 340 | 0.9 | 9.6 | 0.00 | 0.00 | 0.00 | 40 | 1002.5 |
| 20260505220307 | 78 | 273 | 7.0 | 12.2 | 0.00 | 0.00 | 0.00 | 40 | 1002.5 |
| 20260505220206 | 78 | 269 | 2.6 | 12.2 | 0.00 | 0.00 | 0.00 | 41 | 1002.4 |
| 20260505215706 | 78 | 256 | 8.7 | 16.5 | 0.00 | 0.00 | 0.00 | 40 | 1003.1 |
| 20260505215206 | 79 | 274 | 7.8 | 14.8 | 0.00 | 0.00 | 0.00 | 40 | 1002.4 |
| 20260505214807 | 79 | 270 | 1.7 | 10.4 | 0.00 | 0.00 | 0.00 | 40 | 1002.3 |
| 20260505214706 | 79 | 206 | 5.2 | 10.4 | 0.00 | 0.00 | 0.00 | 40 | 1002.4 |
| 20260505214206 | 79 | 273 | 8.7 | 12.2 | 0.00 | 0.00 | 0.00 | 40 | 1002.3 |
| 20260505213706 | 79 | 0 | 0.0 | 7.0 | 0.00 | 0.00 | 0.00 | 40 | 1002.2 |
| 20260505213307 | 79 | 272 | 1.7 | 12.2 | 0.00 | 0.00 | 0.00 | 39 | 1002.5 |
| 20260505213206 | 79 | 270 | 8.7 | 12.2 | 0.00 | 0.00 | 0.00 | 40 | 1002.5 |
| 20260505212706 | 79 | 271 | 5.2 | 13.9 | 0.00 | 0.00 | 0.00 | 39 | 1002.3 |
| 20260505212206 | 79 | 245 | 13.0 | 15.6 | 0.00 | 0.00 | 0.00 | 39 | 1002.2 |
| 20260505211807 | 79 | 216 | 4.3 | 14.8 | 0.00 | 0.00 | 0.00 | 39 | 1002.3 |
| 20260505211706 | 79 | 283 | 3.5 | 14.8 | 0.00 | 0.00 | 0.00 | 38 | 1002.3 |
| 20260505211206 | 79 | 272 | 6.1 | 16.5 | 0.00 | 0.00 | 0.00 | 38 | 1002.4 |
| 20260505210706 | 79 | 217 | 16.5 | 16.5 | 0.00 | 0.00 | 0.00 | 38 | 1002.4 |
| 20260505210307 | 79 | 254 | 8.7 | 10.4 | 0.00 | 0.00 | 0.00 | 38 | 1002.4 |
| 20260505210206 | 79 | 283 | 2.6 | 10.4 | 0.00 | 0.00 | 0.00 | 37 | 1002.4 |
| 20260505205706 | 79 | 291 | 2.6 | 15.6 | 0.00 | 0.00 | 0.00 | 38 | 1002.2 |
| 20260505205206 | 79 | 265 | 3.5 | 11.3 | 0.00 | 0.00 | 0.00 | 38 | 1002.4 |
| 20260505204807 | 79 | 243 | 8.7 | 11.3 | 0.00 | 0.00 | 0.00 | 37 | 1002.5 |
| 20260505204706 | 79 | 262 | 9.6 | 11.3 | 0.00 | 0.00 | 0.00 | 37 | 1002.4 |
| 20260505204206 | 80 | 225 | 5.2 | 13.0 | 0.00 | 0.00 | 0.00 | 36 | 1002.3 |
| 20260505203706 | 80 | 269 | 3.5 | 13.0 | 0.00 | 0.00 | 0.00 | 36 | 1002.3 |
| 20260505203307 | 80 | 244 | 9.6 | 10.4 | 0.00 | 0.00 | 0.00 | 37 | 1002.4 |
| 20260505203206 | 80 | 48 | 1.7 | 7.0 | 0.00 | 0.00 | 0.00 | 37 | 1002.3 |
| 20260505202706 | 79 | 234 | 9.6 | 20.9 | 0.00 | 0.00 | 0.00 | 36 | 1002.3 |
| 20260505202206 | 80 | 290 | 8.7 | 16.5 | 0.00 | 0.00 | 0.00 | 36 | 1002.3 |
| 20260505201807 | 80 | 246 | 11.3 | 13.0 | 0.00 | 0.00 | 0.00 | 37 | 1002.4 |
| 20260505201706 | 80 | 0 | 0.0 | 13.0 | 0.00 | 0.00 | 0.00 | 36 | 1002.5 |
| 20260505201206 | 80 | 177 | 5.2 | 11.3 | 0.00 | 0.00 | 0.00 | 36 | 1002.5 |
| 20260505200706 | 80 | 279 | 6.1 | 15.6 | 0.00 | 0.00 | 0.00 | 37 | 1002.7 |
| 20260505200307 | 80 | 0 | 0.0 | 20.9 | 0.00 | 0.00 | 0.00 | 35 | 1002.4 |
| 20260505200206 | 81 | 267 | 5.2 | 20.9 | 0.00 | 0.00 | 0.00 | 36 | 1002.5 |
| 20260505195706 | 81 | 0 | 0.0 | 12.2 | 0.00 | 0.00 | 0.00 | 37 | 1002.6 |
| 20260505195206 | 81 | 259 | 7.8 | 13.0 | 0.00 | 0.00 | 0.00 | 36 | 1002.6 |
| 20260505194807 | 81 | 283 | 6.1 | 8.7 | 0.00 | 0.00 | 0.00 | 37 | 1002.6 |
| 20260505194706 | 81 | 275 | 0.9 | 8.7 | 0.00 | 0.00 | 0.00 | 37 | 1002.5 |
| 20260505194206 | 80 | 268 | 10.4 | 11.3 | 0.00 | 0.00 | 0.00 | 36 | 1002.5 |
| 20260505193706 | 81 | 280 | 8.7 | 10.4 | 0.00 | 0.00 | 0.00 | 37 | 1002.6 |
| 20260505193307 | 81 | 259 | 3.5 | 8.7 | 0.00 | 0.00 | 0.00 | 37 | 1002.6 |
| 20260505193206 | 81 | 265 | 3.5 | 7.8 | 0.00 | 0.00 | 0.00 | 38 | 1002.5 |
| 20260505192706 | 81 | 59 | 3.5 | 14.8 | 0.00 | 0.00 | 0.00 | 35 | 1002.6 |
| 20260505192206 | 81 | 280 | 5.2 | 15.6 | 0.00 | 0.00 | 0.00 | 35 | 1002.6 |
| 20260505191807 | 82 | 267 | 6.1 | 15.6 | 0.00 | 0.00 | 0.00 | 35 | 1002.8 |
| 20260505191707 | 82 | 295 | 8.7 | 12.2 | 0.00 | 0.00 | 0.00 | 36 | 1002.7 |
| 20260505191207 | 81 | 252 | 0.9 | 7.0 | 0.00 | 0.00 | 0.00 | 38 | 1002.6 |
| 20260505190707 | 81 | 275 | 3.5 | 21.7 | 0.00 | 0.00 | 0.00 | 35 | 1002.7 |
| 20260505190308 | 81 | 250 | 8.7 | 13.9 | 0.00 | 0.00 | 0.00 | 38 | 1002.7 |
| 20260505190207 | 81 | 290 | 1.7 | 8.7 | 0.00 | 0.00 | 0.00 | 36 | 1002.8 |
| 20260505185707 | 81 | 222 | 2.6 | 17.4 | 0.00 | 0.00 | 0.00 | 37 | 1002.8 |
| 20260505185207 | 81 | 242 | 2.6 | 13.0 | 0.00 | 0.00 | 0.00 | 38 | 1002.8 |
| 20260505184808 | 81 | 250 | 6.1 | 12.2 | 0.00 | 0.00 | 0.00 | 38 | 1003.0 |
| 20260505184707 | 81 | 252 | 7.8 | 8.7 | 0.00 | 0.00 | 0.00 | 39 | 1003.1 |
| 20260505184207 | 80 | 263 | 2.6 | 15.6 | 0.00 | 0.00 | 0.00 | 37 | 1003.2 |
| 20260505183707 | 80 | 315 | 1.7 | 17.4 | 0.00 | 0.00 | 0.00 | 38 | 1003.2 |
| 20260505183308 | 80 | 236 | 2.6 | 8.7 | 0.00 | 0.00 | 0.00 | 38 | 1003.2 |
| 20260505183207 | 80 | 273 | 0.9 | 8.7 | 0.00 | 0.00 | 0.00 | 39 | 1003.2 |